Time;durP1;ratioP1;P1;durP2;ratioP2;P2;SDS_P1;SDS_P2;PMS_P1;PMS_P2;Temp;Humidity;BMP_temperature;BMP_pressure;BME280_temperature;BME280_humidity;BME280_pressure;Samples;Min_cycle;Max_cycle;Signal;HPM_P1;HPM_P2
2023/12/01 00:01:40;;;;;;;3.43;1.77;;;2.90;99.90;;;;;;5034932;28;20471;-79
2023/12/01 00:04:09;;;;;;;4.23;2.57;;;3.00;99.90;;;;;;5034845;28;20443;-79
2023/12/01 00:06:36;;;;;;;4.70;1.70;;;2.90;99.90;;;;;;5034831;28;20798;-80
2023/12/01 00:09:02;;;;;;;6.43;1.53;;;3.00;99.90;;;;;;5034111;28;20459;-79
2023/12/01 00:11:29;;;;;;;3.03;1.83;;;3.00;99.90;;;;;;5034937;28;20506;-78
2023/12/01 00:13:56;;;;;;;2.10;1.53;;;3.00;99.90;;;;;;5034999;28;20439;-78
2023/12/01 00:16:23;;;;;;;3.03;2.07;;;2.90;99.90;;;;;;5034956;28;20451;-78
2023/12/01 00:18:49;;;;;;;3.00;2.60;;;2.90;99.90;;;;;;5034630;28;20939;-78
2023/12/01 00:21:17;;;;;;;2.80;2.43;;;3.00;99.90;;;;;;5034122;28;20944;-78
2023/12/01 00:23:44;;;;;;;1.50;1.40;;;3.00;99.90;;;;;;5034412;28;20489;-79
2023/12/01 00:26:11;;;;;;;5.70;2.27;;;3.00;99.90;;;;;;5034465;28;20438;-79
2023/12/01 00:28:38;;;;;;;4.33;1.30;;;3.00;99.90;;;;;;5034167;28;20447;-78
2023/12/01 00:31:05;;;;;;;2.63;2.40;;;2.90;99.90;;;;;;5034397;28;20478;-79
2023/12/01 00:33:32;;;;;;;2.47;2.27;;;2.90;99.90;;;;;;5034300;28;20467;-78
2023/12/01 00:36:00;;;;;;;6.10;2.50;;;2.90;99.90;;;;;;5057386;22;20450;-76
2023/12/01 00:38:28;;;;;;;6.43;2.70;;;2.90;99.90;;;;;;5034140;28;20785;-77
2023/12/01 00:40:55;;;;;;;2.73;2.00;;;3.00;99.90;;;;;;5034182;28;20431;-77
2023/12/01 00:43:22;;;;;;;2.07;1.67;;;3.00;99.90;;;;;;5034118;28;20454;-77
2023/12/01 00:45:49;;;;;;;2.63;2.53;;;3.00;99.90;;;;;;5033645;28;20957;-77
2023/12/01 00:48:15;;;;;;;3.20;2.50;;;3.00;99.90;;;;;;5033945;28;20470;-77
2023/12/01 00:50:42;;;;;;;6.00;2.93;;;3.00;99.90;;;;;;5033619;28;20464;-77
2023/12/01 00:53:09;;;;;;;3.53;2.90;;;3.10;99.90;;;;;;5033632;28;20955;-77
2023/12/01 00:55:37;;;;;;;2.90;2.70;;;3.00;99.90;;;;;;5033835;28;20454;-77
2023/12/01 00:58:04;;;;;;;5.30;2.40;;;3.10;99.90;;;;;;5033528;28;21061;-77
2023/12/01 01:00:32;;;;;;;2.20;1.80;;;3.10;99.90;;;;;;5033729;28;20449;-77
2023/12/01 01:02:59;;;;;;;6.43;2.80;;;3.10;99.90;;;;;;5033599;28;20447;-77
2023/12/01 01:05:25;;;;;;;5.03;3.33;;;3.10;99.90;;;;;;5033712;28;20439;-77
2023/12/01 01:07:52;;;;;;;4.53;2.27;;;3.10;99.90;;;;;;5033645;28;20835;-77
2023/12/01 01:10:20;;;;;;;6.90;2.73;;;3.10;99.90;;;;;;5033761;28;20525;-77
2023/12/01 01:12:48;;;;;;;4.03;3.10;;;3.00;99.90;;;;;;5033365;28;21022;-77
2023/12/01 01:15:15;;;;;;;4.37;2.37;;;3.00;99.90;;;;;;5033666;28;20897;-77
2023/12/01 01:17:42;;;;;;;3.37;2.13;;;3.00;99.90;;;;;;5033761;28;20458;-78
2023/12/01 01:20:10;;;;;;;6.47;2.10;;;3.00;99.90;;;;;;5033786;28;20438;-78
2023/12/01 01:22:37;;;;;;;3.23;2.00;;;2.90;99.90;;;;;;5033705;28;20447;-77
2023/12/01 01:25:05;;;;;;;6.20;2.70;;;2.80;99.90;;;;;;5033638;28;20442;-78
2023/12/01 01:27:32;;;;;;;5.07;2.90;;;2.80;99.90;;;;;;5033298;28;20462;-78
2023/12/01 01:30:00;;;;;;;2.03;1.83;;;2.70;99.90;;;;;;5033645;28;20447;-77
2023/12/01 01:32:27;;;;;;;2.17;2.03;;;2.60;99.90;;;;;;5033300;28;20558;-78
2023/12/01 01:34:53;;;;;;;2.93;1.57;;;2.60;99.90;;;;;;5034972;28;20446;-78
2023/12/01 01:37:20;;;;;;;4.37;1.90;;;2.50;99.90;;;;;;5034167;28;20581;-78
2023/12/01 01:39:48;;;;;;;5.93;2.63;;;2.50;99.90;;;;;;5033375;28;20530;-78
2023/12/01 01:42:15;;;;;;;2.30;1.93;;;2.50;99.90;;;;;;5033090;28;20442;-78
2023/12/01 01:44:43;;;;;;;2.87;2.53;;;2.40;99.90;;;;;;5033228;28;20443;-78
2023/12/01 01:47:11;;;;;;;6.87;2.40;;;2.40;99.90;;;;;;5033325;28;20474;-78
2023/12/01 01:49:38;;;;;;;8.67;3.97;;;2.40;99.90;;;;;;5033283;28;20814;-78
2023/12/01 01:52:05;;;;;;;4.60;2.73;;;2.30;99.90;;;;;;5033232;28;20486;-78
2023/12/01 01:54:33;;;;;;;5.30;2.43;;;2.30;99.90;;;;;;5033076;28;20960;-77
2023/12/01 01:57:00;;;;;;;1.90;1.00;;;2.30;99.90;;;;;;5046402;28;20462;-78
2023/12/01 01:59:27;;;;;;;2.20;1.30;;;2.30;99.90;;;;;;5048729;28;20438;-78
2023/12/01 02:01:54;;;;;;;2.93;2.00;;;2.20;99.90;;;;;;5044961;28;20442;-78
2023/12/01 02:04:22;;;;;;;3.30;1.57;;;2.20;99.90;;;;;;5042928;28;20529;-77
2023/12/01 02:06:49;;;;;;;4.37;2.10;;;2.20;99.90;;;;;;5038913;28;20463;-78
2023/12/01 02:09:16;;;;;;;2.40;2.00;;;2.20;99.90;;;;;;5033317;28;20927;-78
2023/12/01 02:11:44;;;;;;;5.67;2.87;;;2.20;99.90;;;;;;5033080;28;20536;-77
2023/12/01 02:14:11;;;;;;;8.90;2.60;;;2.20;99.90;;;;;;5033095;28;20443;-77
2023/12/01 02:16:45;;;;;;;2.77;1.40;;;2.20;99.90;;;;;;5032908;28;20467;-77
2023/12/01 02:19:12;;;;;;;4.43;1.93;;;2.10;99.90;;;;;;5033090;28;20457;-77
2023/12/01 02:21:44;;;;;;;3.57;2.77;;;2.20;99.90;;;;;;5033417;28;20439;-78
2023/12/01 02:24:10;;;;;;;1.43;1.33;;;2.20;99.90;;;;;;5033176;28;20415;-78
2023/12/01 02:26:37;;;;;;;11.13;4.20;;;2.20;99.90;;;;;;5032579;28;20470;-78
2023/12/01 02:29:04;;;;;;;1.60;1.50;;;2.10;99.90;;;;;;5033037;28;20522;-78
2023/12/01 02:31:31;;;;;;;6.30;0.97;;;2.20;99.90;;;;;;5033313;28;20490;-78
2023/12/01 02:33:58;;;;;;;4.47;4.00;;;2.20;99.90;;;;;;5036533;28;20450;-78
2023/12/01 02:36:25;;;;;;;2.60;1.63;;;2.20;99.90;;;;;;5036282;28;20948;-78
2023/12/01 02:38:53;;;;;;;6.53;2.70;;;2.10;99.90;;;;;;5036586;28;20431;-78
2023/12/01 02:41:20;;;;;;;4.10;3.00;;;2.10;99.90;;;;;;5036596;28;20817;-78
2023/12/01 02:43:46;;;;;;;4.07;3.43;;;2.20;99.90;;;;;;5036414;28;20450;-78
2023/12/01 02:46:13;;;;;;;2.53;1.43;;;2.20;99.90;;;;;;5036365;28;20462;-78
2023/12/01 02:48:40;;;;;;;4.13;2.13;;;2.20;99.90;;;;;;5036174;28;20431;-78
2023/12/01 02:51:08;;;;;;;2.70;1.63;;;2.20;99.90;;;;;;5036309;28;20442;-78
2023/12/01 02:53:35;;;;;;;2.77;2.20;;;2.20;99.90;;;;;;5036182;28;20844;-78
2023/12/01 02:56:03;;;;;;;6.70;1.53;;;2.20;99.90;;;;;;5036175;28;20447;-78
2023/12/01 02:58:30;;;;;;;3.50;2.07;;;2.20;99.90;;;;;;5036153;28;20450;-78
2023/12/01 03:00:57;;;;;;;2.17;1.30;;;2.10;99.90;;;;;;5035899;28;20458;-78
2023/12/01 03:03:24;;;;;;;2.60;2.03;;;2.10;99.90;;;;;;5037095;28;20461;-78
2023/12/01 03:05:51;;;;;;;5.47;3.00;;;2.10;99.90;;;;;;5035994;28;20458;-78
2023/12/01 03:08:18;;;;;;;2.87;1.33;;;2.10;99.90;;;;;;5035701;28;20446;-78
2023/12/01 03:10:44;;;;;;;1.80;1.70;;;2.10;99.90;;;;;;5035902;28;20451;-78
2023/12/01 03:13:12;;;;;;;4.60;2.43;;;2.10;99.90;;;;;;5035391;28;20497;-78
2023/12/01 03:15:40;;;;;;;2.63;2.27;;;2.10;99.90;;;;;;5035459;28;20457;-78
2023/12/01 03:18:07;;;;;;;1.90;1.80;;;2.10;99.90;;;;;;5035530;28;20562;-78
2023/12/01 03:20:35;;;;;;;2.47;1.97;;;2.20;99.90;;;;;;5035700;28;20458;-78
2023/12/01 03:23:01;;;;;;;4.47;1.40;;;2.10;99.90;;;;;;5035670;28;20447;-78
2023/12/01 03:25:28;;;;;;;3.37;2.50;;;2.10;99.90;;;;;;5035361;28;20538;-78
2023/12/01 03:27:55;;;;;;;2.83;1.93;;;2.10;99.90;;;;;;5035521;28;20486;-78
2023/12/01 03:30:23;;;;;;;2.53;2.33;;;2.10;99.90;;;;;;5035559;28;20820;-78
2023/12/01 03:32:51;;;;;;;2.53;1.93;;;2.10;99.90;;;;;;5035100;28;21010;-77
2023/12/01 03:35:20;;;;;;;3.23;2.13;;;2.10;99.90;;;;;;5035163;28;20451;-77
2023/12/01 03:37:47;;;;;;;3.20;1.73;;;2.10;99.90;;;;;;5034847;28;20526;-77
2023/12/01 03:40:14;;;;;;;1.70;1.07;;;2.00;99.90;;;;;;5035311;28;20446;-77
2023/12/01 03:42:45;;;;;;;12.53;2.20;;;2.10;99.90;;;;;;5034709;28;20831;-77
2023/12/01 03:45:13;;;;;;;1.93;1.83;;;2.00;99.90;;;;;;5034643;28;20431;-77
2023/12/01 03:47:42;;;;;;;7.53;2.20;;;2.10;99.90;;;;;;5035091;28;20458;-77
2023/12/01 03:50:11;;;;;;;6.63;2.97;;;2.10;99.90;;;;;;5035113;28;20446;-77
2023/12/01 03:52:40;;;;;;;1.10;1.00;;;2.00;99.90;;;;;;5035141;28;20494;-77
2023/12/01 03:55:07;;;;;;;1.33;1.20;;;2.00;99.90;;;;;;5035300;28;20493;-77
2023/12/01 03:57:34;;;;;;;2.70;1.53;;;2.10;99.90;;;;;;5035198;28;20467;-78
2023/12/01 04:00:00;;;;;;;2.23;1.70;;;2.00;99.90;;;;;;5034599;28;20970;-77
2023/12/01 04:02:27;;;;;;;9.00;3.43;;;2.10;99.90;;;;;;5034651;28;20447;-77
2023/12/01 04:04:56;;;;;;;2.47;1.60;;;2.00;99.90;;;;;;5034547;28;20435;-77
2023/12/01 04:07:23;;;;;;;5.53;3.80;;;2.10;99.90;;;;;;5034695;28;20509;-77
2023/12/01 04:09:49;;;;;;;9.40;1.87;;;2.10;99.90;;;;;;5034872;28;20447;-77
2023/12/01 04:12:16;;;;;;;3.53;1.30;;;2.10;99.90;;;;;;5034457;28;20482;-77
2023/12/01 04:14:43;;;;;;;4.07;2.80;;;2.10;99.90;;;;;;5034335;28;20434;-77
2023/12/01 04:17:10;;;;;;;1.30;1.10;;;2.10;99.90;;;;;;5034145;28;20987;-77
2023/12/01 04:19:37;;;;;;;1.00;1.00;;;2.10;99.90;;;;;;5034473;28;20822;-77
2023/12/01 04:22:06;;;;;;;1.53;1.43;;;2.10;99.90;;;;;;5034202;28;20901;-77
2023/12/01 04:24:33;;;;;;;3.07;1.00;;;2.10;99.90;;;;;;5034283;28;20981;-77
2023/12/01 04:27:00;;;;;;;2.40;2.10;;;2.00;99.90;;;;;;5034251;28;20466;-77
2023/12/01 04:29:29;;;;;;;3.90;1.97;;;2.10;99.90;;;;;;5034162;28;20810;-77
2023/12/01 04:31:55;;;;;;;2.07;1.60;;;2.10;99.90;;;;;;5033842;28;20446;-77
2023/12/01 04:34:22;;;;;;;3.73;1.50;;;2.10;99.90;;;;;;5034277;28;20442;-77
2023/12/01 04:36:52;;;;;;;7.20;2.90;;;2.00;99.90;;;;;;5033889;28;20550;-77
2023/12/01 04:39:20;;;;;;;1.10;1.00;;;2.10;99.90;;;;;;5034095;28;20480;-77
2023/12/01 04:41:47;;;;;;;2.53;2.43;;;2.00;99.90;;;;;;5034100;28;20442;-77
2023/12/01 04:44:14;;;;;;;1.50;1.33;;;2.00;99.90;;;;;;5034024;28;20789;-77
2023/12/01 04:46:41;;;;;;;2.37;0.83;;;2.00;99.90;;;;;;5034010;28;20458;-77
2023/12/01 04:49:08;;;;;;;11.73;2.90;;;2.00;99.90;;;;;;5033968;28;20461;-77
2023/12/01 04:51:36;;;;;;;5.37;2.30;;;2.00;99.90;;;;;;5034110;28;20450;-77
2023/12/01 04:54:04;;;;;;;2.07;1.90;;;2.00;99.90;;;;;;5033711;28;20490;-77
2023/12/01 04:56:33;;;;;;;5.53;2.70;;;2.00;99.90;;;;;;5033751;28;20467;-77
2023/12/01 04:59:00;;;;;;;3.03;2.00;;;2.00;99.90;;;;;;5033548;28;20939;-77
2023/12/01 05:01:26;;;;;;;2.20;2.00;;;2.00;99.90;;;;;;5034778;28;20446;-77
2023/12/01 05:03:53;;;;;;;1.83;1.23;;;2.00;99.90;;;;;;5039361;28;20462;-77
2023/12/01 05:06:20;;;;;;;1.30;1.03;;;2.00;99.90;;;;;;5040162;28;20460;-77
2023/12/01 05:08:47;;;;;;;1.73;1.63;;;2.00;99.90;;;;;;5039141;28;20454;-78
2023/12/01 05:11:14;;;;;;;1.37;1.23;;;2.00;99.90;;;;;;5035852;28;20446;-78
2023/12/01 05:13:42;;;;;;;1.37;1.27;;;2.00;99.90;;;;;;5033773;28;20483;-77
2023/12/01 05:16:09;;;;;;;2.70;2.40;;;2.00;99.90;;;;;;5033723;28;20467;-77
2023/12/01 05:18:36;;;;;;;5.57;2.73;;;2.00;99.90;;;;;;5033975;28;20546;-77
2023/12/01 05:21:08;;;;;;;1.60;1.10;;;2.00;99.90;;;;;;5033886;28;20447;-77
2023/12/01 05:23:35;;;;;;;2.40;1.67;;;2.00;99.90;;;;;;5033644;28;20459;-77
2023/12/01 05:26:03;;;;;;;1.70;1.57;;;2.00;99.90;;;;;;5033057;28;20458;-77
2023/12/01 05:28:29;;;;;;;1.17;1.07;;;2.00;99.90;;;;;;5033770;28;20446;-77
2023/12/01 05:30:58;;;;;;;6.93;1.97;;;2.00;99.90;;;;;;5033395;28;20477;-77
2023/12/01 05:33:24;;;;;;;1.47;1.37;;;2.00;99.90;;;;;;5033304;28;20820;-77
2023/12/01 05:35:51;;;;;;;1.57;1.50;;;2.00;99.90;;;;;;5033221;28;20447;-76
2023/12/01 05:38:18;;;;;;;2.93;1.07;;;2.00;99.90;;;;;;5033880;28;20431;-77
2023/12/01 05:40:45;;;;;;;2.70;1.27;;;2.00;99.90;;;;;;5034291;28;20442;-77
2023/12/01 05:43:13;;;;;;;2.63;1.93;;;2.00;99.90;;;;;;5033086;28;20931;-77
2023/12/01 05:45:39;;;;;;;4.73;1.90;;;2.00;99.90;;;;;;5033348;28;20442;-77
2023/12/01 05:48:07;;;;;;;5.23;1.50;;;2.00;99.90;;;;;;5033245;28;20485;-77
2023/12/01 05:50:35;;;;;;;2.30;1.40;;;2.00;99.90;;;;;;5033198;28;20824;-77
2023/12/01 05:53:03;;;;;;;1.60;1.50;;;2.00;99.90;;;;;;5033161;28;20482;-77
2023/12/01 05:55:33;;;;;;;4.00;1.70;;;2.00;99.90;;;;;;5032918;28;20978;-76
2023/12/01 05:58:02;;;;;;;3.33;2.27;;;2.00;99.90;;;;;;5033234;28;20478;-77
2023/12/01 06:00:30;;;;;;;1.03;1.00;;;2.00;99.90;;;;;;5033248;28;20451;-77
2023/12/01 06:02:58;;;;;;;0.80;0.70;;;2.00;99.90;;;;;;5033212;28;20434;-77
2023/12/01 06:05:26;;;;;;;4.17;2.57;;;2.00;99.90;;;;;;5033046;28;20447;-77
2023/12/01 06:07:54;;;;;;;1.63;1.57;;;1.90;99.90;;;;;;5035720;28;20473;-77
2023/12/01 06:10:22;;;;;;;2.17;2.00;;;1.80;99.90;;;;;;5037087;28;20447;-77
2023/12/01 06:12:49;;;;;;;2.17;1.83;;;1.80;99.90;;;;;;5036930;28;20489;-78
2023/12/01 06:15:17;;;;;;;1.93;1.07;;;1.80;99.90;;;;;;5036999;28;20450;-78
2023/12/01 06:17:46;;;;;;;1.93;1.07;;;1.80;99.90;;;;;;5036755;28;20470;-78
2023/12/01 06:20:18;;;;;;;1.60;1.50;;;1.90;99.90;;;;;;5037013;28;20450;-78
2023/12/01 06:22:47;;;;;;;1.53;1.27;;;1.90;99.90;;;;;;5036826;28;20423;-78
2023/12/01 06:25:14;;;;;;;2.57;1.33;;;1.80;99.90;;;;;;5036746;28;20443;-78
2023/12/01 06:27:42;;;;;;;1.17;1.17;;;1.90;99.90;;;;;;5036468;28;20469;-77
2023/12/01 06:30:11;;;;;;;0.80;0.80;;;1.90;99.90;;;;;;5036708;28;20474;-77
2023/12/01 06:32:39;;;;;;;3.80;1.17;;;1.90;99.90;;;;;;5036582;28;20452;-77
2023/12/01 06:35:07;;;;;;;2.00;1.20;;;1.90;99.90;;;;;;5036289;28;20957;-77
2023/12/01 06:37:34;;;;;;;1.47;1.37;;;1.90;99.90;;;;;;5062164;22;20482;-79
2023/12/01 06:40:04;;;;;;;1.50;1.43;;;2.00;99.90;;;;;;5041083;28;20438;-79
2023/12/01 06:42:30;;;;;;;1.57;0.90;;;1.90;99.90;;;;;;5042313;28;20457;-79
2023/12/01 06:44:57;;;;;;;1.70;1.60;;;1.90;99.90;;;;;;5041852;28;20818;-79
2023/12/01 06:47:24;;;;;;;1.90;0.70;;;1.80;99.90;;;;;;5040957;28;20477;-79
2023/12/01 06:49:50;;;;;;;2.50;1.63;;;1.90;99.90;;;;;;5040722;28;20449;-79
2023/12/01 06:52:18;;;;;;;1.10;0.90;;;1.90;99.90;;;;;;5040560;28;20435;-78
2023/12/01 06:54:45;;;;;;;0.87;0.87;;;1.90;99.90;;;;;;5040639;28;20475;-78
2023/12/01 06:57:13;;;;;;;1.47;0.80;;;1.90;99.90;;;;;;5040933;28;20501;-78
2023/12/01 06:59:40;;;;;;;1.23;0.90;;;1.80;99.90;;;;;;5040780;28;20454;-78
2023/12/01 07:02:07;;;;;;;1.50;1.43;;;1.90;99.90;;;;;;5040500;28;20447;-79
2023/12/01 07:04:34;;;;;;;3.80;1.47;;;1.90;99.90;;;;;;5042195;28;20450;-79
2023/12/01 07:07:01;;;;;;;1.23;1.13;;;1.90;99.90;;;;;;5038985;28;20474;-78
2023/12/01 07:09:28;;;;;;;1.47;1.40;;;1.90;99.90;;;;;;5039448;28;20450;-79
2023/12/01 07:11:55;;;;;;;0.97;0.90;;;1.90;99.90;;;;;;5041611;28;20462;-79
2023/12/01 07:14:23;;;;;;;0.87;0.70;;;1.90;99.90;;;;;;5041533;28;20857;-79
2023/12/01 07:16:50;;;;;;;1.93;1.10;;;1.90;99.90;;;;;;5041447;28;20501;-79
2023/12/01 07:19:17;;;;;;;0.90;0.70;;;1.90;99.90;;;;;;5042571;28;20451;-79
2023/12/01 07:21:46;;;;;;;0.60;0.60;;;1.90;99.90;;;;;;5042272;28;20435;-79
2023/12/01 07:24:12;;;;;;;3.03;1.23;;;1.90;99.90;;;;;;5042482;28;20450;-80
2023/12/01 07:26:39;;;;;;;4.03;1.80;;;1.90;99.90;;;;;;5042222;28;20477;-80
2023/12/01 07:29:06;;;;;;;2.20;0.80;;;1.80;99.90;;;;;;5043814;28;20431;-79
2023/12/01 07:31:34;;;;;;;1.17;1.17;;;1.90;99.90;;;;;;5042665;28;20438;-79
2023/12/01 07:34:01;;;;;;;1.00;0.93;;;1.90;99.90;;;;;;5044206;28;20489;-79
2023/12/01 07:36:29;;;;;;;0.73;0.73;;;1.90;99.90;;;;;;5042533;28;20474;-79
2023/12/01 07:38:55;;;;;;;1.00;0.83;;;1.90;99.90;;;;;;5043395;28;20458;-80
2023/12/01 07:41:21;;;;;;;1.50;1.40;;;2.00;99.90;;;;;;5043115;28;20446;-80
2023/12/01 07:43:52;;;;;;;1.03;0.93;;;2.00;99.90;;;;;;5041541;28;20442;-80
2023/12/01 07:46:20;;;;;;;5.03;1.13;;;2.00;99.90;;;;;;5041329;28;20204;-79
2023/12/01 07:48:48;;;;;;;1.30;0.90;;;2.00;99.90;;;;;;5041497;28;20969;-79
2023/12/01 07:51:15;;;;;;;2.80;1.87;;;2.00;99.90;;;;;;5041740;28;20450;-79
2023/12/01 07:53:44;;;;;;;0.80;0.63;;;2.00;99.90;;;;;;5041125;28;20480;-79
2023/12/01 07:56:11;;;;;;;2.13;1.17;;;2.00;99.90;;;;;;5041461;28;20518;-79
2023/12/01 07:58:38;;;;;;;1.03;0.80;;;2.00;99.90;;;;;;5042601;28;20454;-79
2023/12/01 08:01:06;;;;;;;1.23;1.13;;;2.00;99.90;;;;;;5042315;28;20445;-79
2023/12/01 08:03:32;;;;;;;2.33;1.17;;;2.00;99.90;;;;;;5043086;28;20970;-79
2023/12/01 08:06:00;;;;;;;1.30;1.20;;;2.00;99.90;;;;;;5043372;28;20449;-79
2023/12/01 08:08:27;;;;;;;4.10;1.73;;;2.00;99.90;;;;;;5042862;28;20463;-79
2023/12/01 08:10:54;;;;;;;1.90;1.77;;;2.00;99.90;;;;;;5041865;28;20450;-78
2023/12/01 08:13:24;;;;;;;1.37;1.27;;;2.00;99.90;;;;;;5038708;28;20856;-78
2023/12/01 08:15:50;;;;;;;2.10;1.60;;;2.00;99.90;;;;;;5038280;28;20450;-78
2023/12/01 08:18:17;;;;;;;1.17;1.00;;;2.00;99.90;;;;;;5038666;28;20470;-79
2023/12/01 08:20:44;;;;;;;4.53;1.07;;;2.00;99.90;;;;;;5038031;28;20454;-80
2023/12/01 08:23:13;;;;;;;1.37;0.90;;;2.10;99.90;;;;;;5039384;28;20435;-78
2023/12/01 08:25:40;;;;;;;2.23;1.63;;;2.00;99.90;;;;;;5038348;28;20496;-78
2023/12/01 08:28:06;;;;;;;4.03;2.30;;;2.00;99.90;;;;;;5038320;28;20471;-79
2023/12/01 08:30:33;;;;;;;2.67;1.03;;;2.10;99.90;;;;;;5037472;28;20427;-79
2023/12/01 08:33:00;;;;;;;1.37;1.27;;;2.10;99.90;;;;;;5038605;28;20438;-78
2023/12/01 08:35:27;;;;;;;2.40;1.03;;;2.10;99.90;;;;;;5038863;28;20478;-78
2023/12/01 08:37:54;;;;;;;1.30;0.87;;;2.10;99.90;;;;;;5039620;28;20490;-78
2023/12/01 08:40:22;;;;;;;1.23;0.90;;;2.10;99.90;;;;;;5039242;28;20457;-78
2023/12/01 08:42:52;;;;;;;0.70;0.70;;;2.10;99.90;;;;;;5040103;28;20435;-78
2023/12/01 08:45:19;;;;;;;3.23;2.03;;;2.00;99.90;;;;;;5040223;28;20455;-78
2023/12/01 08:47:45;;;;;;;3.40;1.27;;;2.10;99.90;;;;;;5036669;28;20454;-79
2023/12/01 08:50:12;;;;;;;9.80;2.63;;;2.10;99.90;;;;;;5036832;28;20447;-79
2023/12/01 08:52:39;;;;;;;1.63;1.07;;;2.20;99.90;;;;;;5036234;28;20458;-78
2023/12/01 08:55:06;;;;;;;2.40;1.70;;;2.20;99.90;;;;;;5035933;28;20489;-78
2023/12/01 08:57:34;;;;;;;1.93;1.30;;;2.30;99.90;;;;;;5035165;28;20467;-78
2023/12/01 09:00:01;;;;;;;3.73;2.03;;;2.30;99.90;;;;;;5034394;28;20450;-78
2023/12/01 09:02:28;;;;;;;1.37;1.00;;;2.20;99.90;;;;;;5035200;28;20458;-79
2023/12/01 09:04:55;;;;;;;2.67;1.20;;;2.30;99.90;;;;;;5035610;28;20442;-78
2023/12/01 09:07:21;;;;;;;1.57;1.47;;;2.30;99.90;;;;;;5036350;28;20459;-78
2023/12/01 09:09:48;;;;;;;1.17;0.87;;;2.30;99.90;;;;;;5034635;28;20450;-78
2023/12/01 09:12:15;;;;;;;1.37;0.80;;;2.30;99.90;;;;;;5034869;28;20450;-78
2023/12/01 09:14:43;;;;;;;2.67;1.30;;;2.40;99.90;;;;;;5034769;28;20486;-78
2023/12/01 09:17:10;;;;;;;2.73;2.50;;;2.30;99.90;;;;;;5036649;28;20986;-78
2023/12/01 09:19:36;;;;;;;4.70;2.50;;;2.40;99.90;;;;;;5034825;28;20447;-78
2023/12/01 09:22:03;;;;;;;2.70;1.00;;;2.40;99.90;;;;;;5034929;28;20947;-77
2023/12/01 09:24:30;;;;;;;5.40;1.57;;;2.40;99.90;;;;;;5034156;28;20435;-78
2023/12/01 09:26:57;;;;;;;1.73;1.07;;;2.40;99.90;;;;;;5033313;28;20470;-78
2023/12/01 09:29:23;;;;;;;0.87;0.87;;;2.40;99.90;;;;;;5033677;28;20442;-78
2023/12/01 09:31:52;;;;;;;1.57;1.47;;;2.40;99.90;;;;;;5036297;28;20936;-77
2023/12/01 09:34:19;;;;;;;3.53;1.10;;;2.50;99.90;;;;;;5036258;28;20479;-77
2023/12/01 09:36:46;;;;;;;1.90;1.07;;;2.50;99.90;;;;;;5040490;28;20490;-80
2023/12/01 09:39:14;;;;;;;1.70;1.03;;;2.40;99.90;;;;;;5039621;28;20451;-78
2023/12/01 09:41:42;;;;;;;1.70;1.60;;;2.50;99.90;;;;;;5035611;28;20446;-78
2023/12/01 09:44:09;;;;;;;1.83;1.73;;;2.50;99.90;;;;;;5037634;28;20454;-78
2023/12/01 09:46:36;;;;;;;3.77;2.33;;;2.40;99.90;;;;;;5038238;28;20496;-78
2023/12/01 09:49:06;;;;;;;0.53;0.53;;;2.40;99.90;;;;;;5037807;28;20438;-78
2023/12/01 09:51:36;;;;;;;1.57;0.60;;;2.50;99.90;;;;;;5040086;28;20450;-78
2023/12/01 09:54:03;;;;;;;2.60;1.00;;;2.50;99.90;;;;;;5037174;28;20986;-77
2023/12/01 09:56:31;;;;;;;2.27;2.07;;;2.50;99.90;;;;;;5037343;28;20801;-79
2023/12/01 09:58:59;;;;;;;1.90;1.20;;;2.60;99.90;;;;;;5041094;28;20821;-80
2023/12/01 10:01:26;;;;;;;1.90;0.90;;;2.50;99.90;;;;;;5040198;28;20450;-78
2023/12/01 10:03:53;;;;;;;0.97;0.97;;;2.50;99.90;;;;;;5039498;28;20449;-79
2023/12/01 10:06:22;;;;;;;0.97;0.60;;;2.50;99.90;;;;;;5039932;28;20442;-79
2023/12/01 10:08:50;;;;;;;2.83;1.13;;;2.40;99.90;;;;;;5039595;28;20442;-78
2023/12/01 10:11:23;;;;;;;4.13;1.83;;;2.50;99.90;;;;;;5037834;28;20963;-80
2023/12/01 10:13:51;;;;;;;0.60;0.60;;;2.50;99.90;;;;;;5039508;28;20542;-78
2023/12/01 10:16:18;;;;;;;0.83;0.83;;;2.50;99.90;;;;;;5036990;28;20825;-77
2023/12/01 10:18:59;;;;;;;1.80;0.80;;;2.40;99.90;;;;;;5037518;28;20419;-78
2023/12/01 10:21:43;;;;;;;0.50;0.50;;;2.40;99.90;;;;;;5039823;28;20453;-80
2023/12/01 10:24:17;;;;;;;0.83;0.83;;;2.40;99.90;;;;;;5040907;28;20445;-79
2023/12/01 10:26:44;;;;;;;0.50;0.50;;;2.40;99.90;;;;;;5041287;28;20470;-80
2023/12/01 10:29:25;;;;;;;1.33;0.50;;;2.40;99.90;;;;;;5040188;28;20467;-79
2023/12/01 10:31:51;;;;;;;2.00;1.40;;;2.40;99.90;;;;;;5040039;28;20521;-80
2023/12/01 10:34:19;;;;;;;1.43;1.03;;;2.50;99.90;;;;;;5040134;28;20540;-79
2023/12/01 10:36:49;;;;;;;0.60;0.57;;;2.50;99.90;;;;;;5040179;28;20478;-79
2023/12/01 10:39:17;;;;;;;1.80;1.60;;;2.50;99.90;;;;;;5040254;28;20431;-81
2023/12/01 10:41:45;;;;;;;1.70;1.03;;;2.50;99.90;;;;;;5039818;28;20427;-80
2023/12/01 10:44:16;;;;;;;2.50;1.40;;;2.50;99.90;;;;;;5040725;28;20427;-80
2023/12/01 10:46:45;;;;;;;0.93;0.67;;;2.50;99.90;;;;;;5040106;28;20454;-80
2023/12/01 10:49:14;;;;;;;1.70;1.20;;;2.60;99.90;;;;;;5039949;28;20450;-79
2023/12/01 10:51:42;;;;;;;2.00;0.70;;;2.50;99.90;;;;;;5040879;28;20473;-79
2023/12/01 10:54:12;;;;;;;1.37;0.93;;;2.50;99.90;;;;;;5039731;28;20478;-80
2023/12/01 10:56:48;;;;;;;7.60;0.70;;;2.60;99.90;;;;;;5039792;28;20809;-79
2023/12/01 10:59:19;;;;;;;1.07;1.07;;;2.60;99.90;;;;;;5041156;28;20799;-78
2023/12/01 11:01:49;;;;;;;0.70;0.60;;;2.60;99.90;;;;;;5039120;28;20485;-79
2023/12/01 11:04:23;;;;;;;1.43;1.17;;;2.70;99.90;;;;;;5039634;28;20835;-79
2023/12/01 11:07:27;;;;;;;0.60;0.60;;;2.70;99.90;;;;;;5039849;28;20462;-82
2023/12/01 11:10:09;;;;;;;1.10;0.57;;;2.70;99.90;;;;;;5038877;28;20450;-79
2023/12/01 11:12:50;;;;;;;5.20;1.10;;;2.70;99.90;;;;;;5039819;28;20981;-78
2023/12/01 11:15:21;;;;;;;0.60;0.60;;;2.80;99.90;;;;;;5041779;28;20467;-79
2023/12/01 11:17:48;;;;;;;1.60;1.40;;;2.80;99.90;;;;;;5040489;28;20499;-79
2023/12/01 11:20:36;;;;;;;2.47;1.13;;;2.80;99.90;;;;;;5040578;28;20482;-79
2023/12/01 11:23:24;;;;;;;1.80;1.27;;;2.80;99.90;;;;;;5035059;28;20935;-80
2023/12/01 11:25:55;;;;;;;1.03;1.03;;;2.70;99.90;;;;;;5040932;28;20427;-78
2023/12/01 11:28:28;;;;;;;1.13;1.07;;;2.70;99.90;;;;;;5037987;28;20463;-78
2023/12/01 11:31:08;;;;;;;2.13;1.43;;;2.60;99.90;;;;;;5038673;28;20427;-79
2023/12/01 11:33:41;;;;;;;3.20;1.43;;;2.60;99.90;;;;;;5040452;28;20455;-78
2023/12/01 11:36:25;;;;;;;2.10;1.20;;;2.60;99.90;;;;;;5039297;28;20470;-79
2023/12/01 11:39:14;;;;;;;4.10;2.40;;;2.60;99.90;;;;;;5038745;28;20441;-79
2023/12/01 11:41:51;;;;;;;1.20;0.90;;;2.60;99.90;;;;;;5040635;28;20847;-79
2023/12/01 11:44:23;;;;;;;1.30;1.20;;;2.60;99.90;;;;;;5038545;28;20855;-79
2023/12/01 11:46:55;;;;;;;7.67;2.27;;;2.60;99.90;;;;;;5040589;28;20982;-79
2023/12/01 11:49:23;;;;;;;2.83;1.83;;;2.60;99.90;;;;;;5037689;28;20431;-78
2023/12/01 11:51:50;;;;;;;1.83;1.00;;;2.60;99.90;;;;;;5038278;28;20994;-79
2023/12/01 11:54:17;;;;;;;2.10;1.90;;;2.60;99.90;;;;;;5040211;28;20443;-79
2023/12/01 11:56:50;;;;;;;4.83;2.03;;;2.60;99.90;;;;;;5041180;28;20478;-78
2023/12/01 11:59:17;;;;;;;3.10;1.83;;;2.60;99.90;;;;;;5039057;28;20431;-79
2023/12/01 12:01:45;;;;;;;3.57;1.70;;;2.50;99.90;;;;;;5039021;28;20470;-79
2023/12/01 12:04:13;;;;;;;0.70;0.70;;;2.40;99.90;;;;;;5038540;28;20443;-79
2023/12/01 12:06:41;;;;;;;2.37;1.63;;;2.50;99.90;;;;;;5039220;28;20488;-80
2023/12/01 12:09:08;;;;;;;4.73;1.33;;;2.30;99.90;;;;;;5038003;28;20427;-78
2023/12/01 12:11:36;;;;;;;1.40;1.40;;;2.40;99.90;;;;;;5037042;28;20471;-79
2023/12/01 12:14:05;;;;;;;9.47;2.33;;;2.30;99.90;;;;;;5038082;28;20446;-79
2023/12/01 12:16:32;;;;;;;0.80;0.80;;;2.30;99.90;;;;;;5038675;28;20478;-80
2023/12/01 12:18:59;;;;;;;3.00;2.03;;;2.30;99.90;;;;;;5037638;28;20427;-78
2023/12/01 12:21:27;;;;;;;0.87;0.87;;;2.30;99.90;;;;;;5037899;28;20899;-79
2023/12/01 12:23:54;;;;;;;6.70;2.17;;;2.30;99.90;;;;;;5038335;28;20994;-79
2023/12/01 12:26:23;;;;;;;1.03;1.03;;;2.30;99.90;;;;;;5038062;28;20427;-79
2023/12/01 12:28:52;;;;;;;3.53;1.27;;;2.40;99.90;;;;;;5038637;28;20450;-80
2023/12/01 12:31:23;;;;;;;2.47;1.60;;;2.30;99.90;;;;;;5038642;28;20443;-79
2023/12/01 12:33:50;;;;;;;2.37;1.30;;;2.40;99.90;;;;;;5038086;28;20836;-79
2023/12/01 12:36:17;;;;;;;5.80;2.07;;;2.40;99.90;;;;;;5037869;28;20486;-79
2023/12/01 12:38:47;;;;;;;2.40;1.43;;;2.30;99.90;;;;;;5064529;22;20495;-79
2023/12/01 12:41:23;;;;;;;1.67;0.90;;;2.30;99.90;;;;;;5039911;28;20427;-79
2023/12/01 12:43:52;;;;;;;2.77;1.33;;;2.40;99.90;;;;;;5040818;28;20438;-79
2023/12/01 12:46:20;;;;;;;2.63;1.10;;;2.50;99.90;;;;;;5043943;28;20466;-79
2023/12/01 12:48:47;;;;;;;3.90;2.10;;;2.60;99.90;;;;;;5042910;28;20474;-79
2023/12/01 12:51:15;;;;;;;2.83;2.57;;;2.30;99.90;;;;;;5041988;28;20451;-79
2023/12/01 12:53:41;;;;;;;4.67;1.77;;;2.40;99.90;;;;;;5041149;28;20454;-80
2023/12/01 12:56:13;;;;;;;3.90;1.53;;;2.30;99.90;;;;;;5039908;28;20906;-79
2023/12/01 12:58:41;;;;;;;2.97;2.30;;;2.30;99.90;;;;;;5038965;28;20463;-79
2023/12/01 13:01:08;;;;;;;4.53;1.37;;;2.20;99.90;;;;;;5036598;28;20457;-79
2023/12/01 13:03:36;;;;;;;1.27;1.17;;;2.20;99.90;;;;;;5037950;28;20446;-79